createdAt,value
2019-05-16T00:02:18.868Z,5.33
2019-05-16T00:04:49.210Z,3.27
2019-05-16T00:07:19.526Z,2.37
2019-05-16T00:09:55.163Z,2.43
2019-05-16T00:12:29.232Z,2.50
2019-05-16T00:14:58.914Z,2.40
2019-05-16T00:17:29.233Z,2.20
2019-05-16T00:19:59.660Z,2.80
2019-05-16T00:22:29.973Z,2.20
2019-05-16T00:25:00.340Z,2.40
2019-05-16T00:27:30.707Z,2.43
2019-05-16T00:30:01.119Z,2.77
2019-05-16T00:32:34.054Z,1.97
2019-05-16T00:35:04.634Z,2.37
2019-05-16T00:37:35.157Z,3.90
2019-05-16T00:40:08.250Z,3.50
2019-05-16T00:42:39.301Z,2.90
2019-05-16T00:45:13.011Z,2.40
2019-05-16T00:47:42.105Z,3.70
2019-05-16T00:50:12.551Z,2.30
2019-05-16T00:52:42.859Z,4.13
2019-05-16T00:55:13.313Z,3.33
2019-05-16T00:57:44.725Z,2.10
2019-05-16T01:00:18.040Z,2.33
2019-05-16T01:02:48.557Z,2.60
2019-05-16T01:05:19.332Z,3.27
2019-05-16T01:07:50.220Z,2.77
2019-05-16T01:10:21.260Z,3.50
2019-05-16T01:12:52.220Z,3.30
2019-05-16T01:15:24.572Z,3.97
2019-05-16T01:17:55.482Z,2.60
2019-05-16T01:20:27.947Z,2.50
2019-05-16T01:22:58.966Z,3.10
2019-05-16T01:25:30.532Z,3.70
2019-05-16T01:28:01.400Z,3.67
2019-05-16T01:30:32.315Z,3.67
2019-05-16T01:33:03.293Z,4.57
2019-05-16T01:35:38.370Z,3.27
2019-05-16T01:38:08.517Z,2.83
2019-05-16T01:40:39.460Z,2.83
2019-05-16T01:43:10.460Z,2.50
2019-05-16T01:45:41.621Z,3.30
2019-05-16T01:48:14.729Z,2.97
2019-05-16T01:50:45.360Z,3.37
2019-05-16T01:53:17.928Z,2.70
2019-05-16T01:55:49.069Z,2.50
2019-05-16T01:58:20.880Z,3.00
2019-05-16T02:01:02.531Z,5.00
2019-05-16T02:03:24.460Z,3.20
2019-05-16T02:05:55.481Z,3.07
2019-05-16T02:08:28.493Z,3.33
2019-05-16T02:10:58.940Z,3.07
2019-05-16T02:13:29.945Z,4.10
2019-05-16T02:16:00.821Z,4.40
2019-05-16T02:18:32.020Z,3.20
2019-05-16T02:21:04.040Z,3.37
2019-05-16T02:23:35.160Z,3.47
2019-05-16T02:26:07.845Z,3.30
2019-05-16T02:28:40.811Z,4.27
2019-05-16T02:31:15.264Z,3.17
2019-05-16T02:33:44.220Z,3.30
2019-05-16T02:36:15.420Z,3.47
2019-05-16T02:38:46.421Z,4.13
2019-05-16T02:41:17.422Z,4.13
2019-05-16T02:43:50.801Z,4.73
2019-05-16T02:46:22.031Z,3.90
2019-05-16T02:48:53.321Z,4.80
2019-05-16T02:51:24.281Z,3.80
2019-05-16T02:53:55.041Z,3.83
2019-05-16T02:56:25.961Z,3.83
2019-05-16T02:58:56.760Z,3.67
2019-05-16T03:01:31.493Z,4.83
2019-05-16T03:04:01.665Z,3.60
2019-05-16T03:06:34.405Z,8.67
2019-05-16T03:09:10.933Z,4.27
2019-05-16T03:11:41.894Z,4.03
2019-05-16T03:14:13.248Z,3.90
2019-05-16T03:16:44.916Z,4.63
2019-05-16T03:19:16.345Z,5.97
2019-05-16T03:21:50.667Z,5.83
2019-05-16T03:24:20.584Z,4.83
2019-05-16T03:26:51.580Z,5.93
2019-05-16T03:29:22.067Z,5.50
2019-05-16T03:31:54.138Z,4.33
2019-05-16T03:34:25.969Z,4.33
2019-05-16T03:36:56.405Z,4.00
2019-05-16T03:39:26.807Z,4.43
2019-05-16T03:41:57.199Z,7.23
2019-05-16T03:44:27.601Z,4.50
2019-05-16T03:47:00.916Z,4.17
2019-05-16T03:49:31.254Z,4.60
2019-05-16T03:52:01.916Z,4.70
2019-05-16T03:54:32.264Z,5.97
2019-05-16T03:57:02.584Z,6.17
2019-05-16T03:59:32.956Z,5.90
2019-05-16T04:02:03.283Z,6.97
2019-05-16T04:04:33.657Z,5.93
2019-05-16T04:07:04.014Z,7.37
2019-05-16T04:09:34.460Z,6.97
2019-05-16T04:12:05.041Z,5.83
2019-05-16T04:14:35.405Z,7.93
2019-05-16T04:17:05.730Z,5.90
2019-05-16T04:19:36.112Z,7.13
2019-05-16T04:22:10.499Z,8.50
2019-05-16T04:24:41.854Z,7.10
2019-05-16T04:27:12.370Z,6.07
2019-05-16T04:29:43.132Z,5.50
2019-05-16T04:32:13.446Z,7.90
2019-05-16T04:34:43.820Z,6.13
2019-05-16T04:37:14.277Z,5.30
2019-05-16T04:39:44.642Z,6.70
2019-05-16T04:42:15.033Z,5.93
2019-05-16T04:44:45.500Z,4.80
2019-05-16T04:47:15.787Z,4.97
2019-05-16T04:49:46.266Z,5.33
2019-05-16T04:52:16.606Z,4.87
2019-05-16T04:54:46.972Z,5.20
2019-05-16T04:57:20.643Z,5.20
2019-05-16T04:59:50.838Z,5.70
2019-05-16T05:02:21.562Z,6.43
2019-05-16T05:04:51.928Z,6.53
2019-05-16T05:07:22.247Z,4.57
2019-05-16T05:09:52.605Z,5.20
2019-05-16T05:12:22.968Z,5.93
2019-05-16T05:14:53.447Z,5.40
2019-05-16T05:17:23.797Z,6.10
2019-05-16T05:19:54.134Z,5.03
2019-05-16T05:22:24.497Z,7.67
2019-05-16T05:24:54.828Z,9.83
2019-05-16T05:27:25.203Z,5.43
2019-05-16T05:29:55.527Z,5.20
2019-05-16T05:32:25.885Z,5.80
2019-05-16T05:34:56.216Z,5.20
2019-05-16T05:37:26.652Z,4.90
2019-05-16T05:39:57.026Z,5.00
2019-05-16T05:42:27.383Z,8.57
2019-05-16T05:45:00.144Z,5.57
2019-05-16T05:47:30.731Z,7.10
2019-05-16T05:50:01.296Z,7.13
2019-05-16T05:52:31.661Z,7.13
2019-05-16T05:55:02.003Z,5.77
2019-05-16T05:57:32.524Z,6.37
2019-05-16T06:00:02.838Z,7.23
2019-05-16T06:02:33.204Z,5.97
2019-05-16T06:05:04.109Z,7.03
2019-05-16T06:07:34.491Z,6.07
2019-05-16T06:10:06.126Z,9.03
2019-05-16T06:12:36.499Z,9.93
2019-05-16T06:15:11.871Z,7.93
2019-05-16T06:17:40.172Z,6.37
2019-05-16T06:20:14.542Z,7.43
2019-05-16T06:22:42.997Z,7.43
2019-05-16T06:25:13.977Z,8.00
2019-05-16T06:27:44.469Z,10.37
2019-05-16T06:30:15.000Z,9.00
2019-05-16T06:32:45.358Z,8.60
2019-05-16T06:35:15.680Z,7.63
2019-05-16T06:37:46.049Z,7.00
2019-05-16T06:40:16.360Z,7.77
2019-05-16T06:42:46.690Z,7.43
2019-05-16T06:45:17.125Z,6.57
2019-05-16T06:47:47.515Z,7.47
2019-05-16T06:50:20.613Z,6.77
2019-05-16T06:52:50.314Z,7.20
2019-05-16T06:55:20.813Z,7.03
2019-05-16T06:57:51.191Z,7.30
2019-05-16T07:00:21.846Z,6.87
2019-05-16T07:02:52.252Z,6.40
2019-05-16T07:05:22.566Z,7.73
2019-05-16T07:07:53.043Z,6.63
2019-05-16T07:10:23.495Z,6.67
2019-05-16T07:12:53.841Z,6.70
2019-05-16T07:15:24.520Z,7.10
2019-05-16T07:17:54.870Z,7.43
2019-05-16T07:20:25.366Z,6.67
2019-05-16T07:22:55.779Z,6.97
2019-05-16T07:25:26.223Z,6.73
2019-05-16T07:27:56.541Z,6.97
2019-05-16T07:30:27.044Z,6.70
2019-05-16T07:32:57.379Z,6.83
2019-05-16T07:35:27.876Z,6.73
2019-05-16T07:38:00.482Z,7.10
2019-05-16T07:40:30.856Z,6.57
2019-05-16T07:43:01.328Z,7.70
2019-05-16T07:45:31.799Z,6.90
2019-05-16T07:48:02.150Z,6.67
2019-05-16T07:50:32.514Z,7.70
2019-05-16T07:53:02.845Z,7.87
2019-05-16T07:55:33.203Z,6.90
2019-05-16T07:58:04.594Z,8.60
2019-05-16T08:00:49.223Z,7.33
2019-05-16T08:03:07.008Z,7.30
2019-05-16T08:05:37.343Z,7.30
2019-05-16T08:08:07.674Z,7.17
2019-05-16T08:10:45.606Z,7.07
2019-05-16T08:13:12.309Z,7.57
2019-05-16T08:15:42.010Z,7.00
2019-05-16T08:18:13.818Z,7.40
2019-05-16T08:20:44.191Z,7.73
2019-05-16T08:23:14.544Z,7.97
2019-05-16T08:25:44.895Z,7.37
2019-05-16T08:28:16.295Z,11.17
2019-05-16T08:30:46.652Z,8.90
2019-05-16T08:33:17.055Z,8.77
2019-05-16T08:35:47.491Z,9.27
2019-05-16T08:38:21.121Z,7.80
2019-05-16T08:41:06.248Z,8.07
2019-05-16T08:43:22.213Z,9.27
2019-05-16T08:45:52.614Z,8.33
2019-05-16T08:48:23.607Z,8.80
2019-05-16T08:53:26.123Z,7.50
2019-05-16T08:55:57.277Z,9.53
2019-05-16T08:58:32.658Z,10.77
2019-05-16T09:01:02.288Z,8.33
2019-05-16T09:03:32.560Z,8.90
2019-05-16T09:06:03.537Z,12.23
2019-05-16T09:08:33.955Z,9.20
2019-05-16T09:10:31.816Z,9.07
2019-05-16T09:11:24.938Z,9.43
2019-05-16T09:13:37.587Z,11.90
2019-05-16T09:16:08.006Z,7.70
2019-05-16T09:18:45.655Z,7.53
2019-05-16T09:21:11.335Z,7.53
2019-05-16T09:23:41.693Z,7.53
2019-05-16T09:26:15.994Z,8.00
2019-05-16T09:28:47.811Z,7.93
2019-05-16T09:31:17.857Z,8.20
2019-05-16T09:33:49.107Z,8.83
2019-05-16T09:36:19.507Z,7.70
2019-05-16T09:38:49.939Z,6.70
2019-05-16T09:41:20.410Z,6.47
2019-05-16T09:43:50.774Z,7.63
2019-05-16T09:46:21.269Z,6.77
2019-05-16T09:49:11.769Z,7.00
2019-05-16T09:51:23.675Z,6.83
2019-05-16T09:53:56.534Z,6.80
2019-05-16T09:56:27.025Z,6.57
2019-05-16T09:58:57.604Z,7.13
2019-05-16T10:01:28.687Z,8.07
2019-05-16T10:03:59.006Z,7.70
2019-05-16T10:06:29.594Z,7.27
2019-05-16T10:09:00.015Z,8.97
2019-05-16T10:11:31.697Z,6.60
2019-05-16T10:14:02.328Z,7.57
2019-05-16T10:16:32.829Z,7.73
2019-05-16T10:19:03.158Z,6.90
2019-05-16T10:21:33.531Z,9.30
2019-05-16T10:24:03.883Z,8.00
2019-05-16T10:26:37.039Z,7.80
2019-05-16T10:29:10.949Z,8.63
2019-05-16T10:31:48.578Z,6.53
2019-05-16T10:34:10.600Z,6.23
2019-05-16T10:36:41.025Z,6.73
2019-05-16T10:39:11.502Z,7.60
2019-05-16T10:41:41.942Z,6.10
2019-05-16T10:44:12.296Z,5.57
2019-05-16T10:46:42.739Z,6.00
2019-05-16T10:49:13.115Z,5.57
2019-05-16T10:51:43.712Z,6.63
2019-05-16T10:54:17.231Z,5.37
2019-05-16T10:56:46.786Z,7.70
2019-05-16T10:59:51.203Z,6.77
2019-05-16T11:01:49.294Z,5.80
2019-05-16T11:04:29.517Z,4.60
2019-05-16T11:06:51.599Z,5.87
2019-05-16T11:09:22.138Z,5.90
2019-05-16T11:11:52.503Z,5.03
2019-05-16T11:14:22.878Z,8.30
2019-05-16T11:16:53.314Z,5.37
2019-05-16T11:19:24.801Z,3.97
2019-05-16T11:21:57.341Z,4.60
2019-05-16T11:24:29.496Z,5.40
2019-05-16T11:26:59.947Z,4.90
2019-05-16T11:29:30.314Z,6.87
2019-05-16T11:32:01.076Z,5.37
2019-05-16T11:34:31.552Z,5.07
2019-05-16T11:37:01.866Z,5.13
2019-05-16T11:39:33.199Z,5.67
2019-05-16T11:42:04.188Z,4.00
2019-05-16T11:44:37.843Z,4.47
2019-05-16T11:47:08.178Z,4.23
2019-05-16T11:49:38.560Z,3.67
2019-05-16T11:52:08.899Z,4.20
2019-05-16T11:54:39.278Z,6.37
2019-05-16T11:57:09.623Z,4.20
2019-05-16T11:59:40.039Z,4.23
2019-05-16T12:02:10.376Z,3.47
2019-05-16T12:04:40.762Z,3.83
2019-05-16T12:07:11.099Z,5.43
2019-05-16T12:09:47.297Z,6.17
2019-05-16T12:12:13.612Z,3.70
2019-05-16T12:14:43.986Z,4.63
2019-05-16T12:17:16.492Z,3.50
2019-05-16T12:19:48.231Z,3.73
2019-05-16T12:22:19.979Z,2.83
2019-05-16T12:24:50.351Z,3.90
2019-05-16T12:27:20.737Z,4.73
2019-05-16T12:29:55.320Z,3.83
2019-05-16T12:32:23.048Z,3.03
2019-05-16T12:34:53.450Z,3.20
2019-05-16T12:37:23.786Z,3.63
2019-05-16T12:39:54.144Z,4.20
2019-05-16T12:42:26.921Z,3.20
2019-05-16T12:44:56.616Z,3.97
2019-05-16T12:47:26.940Z,3.43
2019-05-16T12:49:57.393Z,3.20
2019-05-16T12:52:27.907Z,3.17
2019-05-16T12:54:58.274Z,3.33
2019-05-16T12:57:31.153Z,4.03
2019-05-16T13:00:00.647Z,3.30
2019-05-16T13:02:30.960Z,4.53
2019-05-16T13:05:01.319Z,7.33
2019-05-16T13:07:31.724Z,3.60
2019-05-16T13:10:02.112Z,3.23
2019-05-16T13:12:32.564Z,3.50
2019-05-16T13:15:02.884Z,3.33
2019-05-16T13:17:33.319Z,3.00
2019-05-16T13:20:03.832Z,2.67
2019-05-16T13:22:34.247Z,4.43
2019-05-16T13:25:07.339Z,3.65
2019-05-16T13:27:37.496Z,4.83
2019-05-16T13:30:08.937Z,4.97
2019-05-16T13:32:39.295Z,3.03
2019-05-16T13:35:09.966Z,7.60
2019-05-16T13:37:41.251Z,3.03
2019-05-16T13:40:12.055Z,3.40
2019-05-16T13:42:42.459Z,3.20
2019-05-16T13:45:13.026Z,2.30
2019-05-16T13:47:43.394Z,2.60
2019-05-16T13:50:16.682Z,2.53
2019-05-16T13:52:47.992Z,4.33
2019-05-16T13:55:18.365Z,3.83
2019-05-16T13:57:48.683Z,2.70
2019-05-16T14:00:19.984Z,3.30
2019-05-16T14:02:50.354Z,3.97
2019-05-16T14:05:20.827Z,3.90
2019-05-16T14:07:51.123Z,3.20
2019-05-16T14:10:21.548Z,3.17
2019-05-16T14:12:51.904Z,3.13
2019-05-16T14:15:22.439Z,2.57
2019-05-16T14:17:52.828Z,3.87
2019-05-16T14:20:23.165Z,3.27
2019-05-16T14:22:57.150Z,3.83
2019-05-16T14:25:26.511Z,3.60
2019-05-16T14:27:56.909Z,4.40
2019-05-16T14:30:28.587Z,2.87
2019-05-16T14:33:01.241Z,2.90
2019-05-16T14:35:31.229Z,4.70
2019-05-16T14:38:01.616Z,4.87
2019-05-16T14:40:31.972Z,2.80
2019-05-16T14:43:02.425Z,4.13
2019-05-16T14:45:32.830Z,4.50
2019-05-16T14:48:03.211Z,2.90
2019-05-16T14:50:33.543Z,3.57
2019-05-16T14:53:03.973Z,3.50
2019-05-16T14:55:34.311Z,4.73
2019-05-16T14:58:07.163Z,7.77
2019-05-16T15:00:38.422Z,7.50
2019-05-16T15:03:09.038Z,3.50
2019-05-16T15:05:42.494Z,4.63
2019-05-16T15:08:11.398Z,3.50
2019-05-16T15:10:41.771Z,5.20
2019-05-16T15:13:12.222Z,4.30
2019-05-16T15:15:42.546Z,3.67
2019-05-16T15:18:17.426Z,4.10
2019-05-16T15:20:46.970Z,6.00
2019-05-16T15:23:17.933Z,2.80
2019-05-16T15:25:48.367Z,2.90
2019-05-16T15:28:18.783Z,3.43
2019-05-16T15:30:49.123Z,3.03
2019-05-16T15:33:19.881Z,4.77
2019-05-16T15:35:50.244Z,2.60
2019-05-16T15:38:20.645Z,3.70
2019-05-16T15:40:50.977Z,2.63
2019-05-16T15:43:21.331Z,3.93
2019-05-16T15:45:53.186Z,4.50
2019-05-16T15:48:23.838Z,3.17
2019-05-16T15:50:59.564Z,5.07
2019-05-16T15:53:27.415Z,4.10
2019-05-16T15:55:58.548Z,3.00
2019-05-16T15:58:28.891Z,7.53
2019-05-16T16:00:59.266Z,3.10
2019-05-16T16:03:29.611Z,2.77
2019-05-16T16:06:00.032Z,3.93
2019-05-16T16:08:30.388Z,7.20
2019-05-16T16:11:00.760Z,3.30
2019-05-16T16:13:31.182Z,5.43
2019-05-16T16:16:01.502Z,3.40
2019-05-16T16:18:31.890Z,3.00
2019-05-16T16:21:02.229Z,3.80
2019-05-16T16:23:32.663Z,4.70
2019-05-16T16:26:03.022Z,4.80
2019-05-16T16:28:33.362Z,4.50
2019-05-16T16:31:03.837Z,4.37
2019-05-16T16:33:34.150Z,4.27
2019-05-16T16:36:04.517Z,3.10
2019-05-16T16:38:38.092Z,4.27
2019-05-16T16:41:11.226Z,5.30
2019-05-16T16:43:42.732Z,5.90
2019-05-16T16:46:13.707Z,3.43
2019-05-16T16:48:44.245Z,5.17
2019-05-16T16:51:17.355Z,4.07
2019-05-16T16:53:46.950Z,3.90
2019-05-16T16:56:18.423Z,4.43
2019-05-16T16:58:48.816Z,10.57
2019-05-16T17:01:19.262Z,6.17
2019-05-16T17:03:49.754Z,4.07
2019-05-16T17:06:20.133Z,2.87
2019-05-16T17:08:50.591Z,3.43
2019-05-16T17:11:20.967Z,3.50
2019-05-16T17:13:51.352Z,6.80
2019-05-16T17:16:26.001Z,4.13
2019-05-16T17:18:53.806Z,4.37
2019-05-16T17:21:24.140Z,6.77
2019-05-16T17:23:56.812Z,3.33
2019-05-16T17:26:27.457Z,5.87
2019-05-16T17:28:57.996Z,4.73
2019-05-16T17:31:28.361Z,3.63
2019-05-16T17:33:58.738Z,3.53
2019-05-16T17:36:29.164Z,5.77
2019-05-16T17:38:59.512Z,7.03
2019-05-16T17:41:31.087Z,4.67
2019-05-16T17:44:01.398Z,5.13
2019-05-16T17:46:40.045Z,3.40
2019-05-16T17:49:07.417Z,4.50
2019-05-16T17:51:38.047Z,5.60
2019-05-16T17:54:08.359Z,4.70
2019-05-16T17:56:38.760Z,3.93
2019-05-16T17:59:09.323Z,4.63
2019-05-16T18:01:39.782Z,4.27
2019-05-16T18:04:10.187Z,3.20
2019-05-16T18:06:40.573Z,3.27
2019-05-16T18:09:10.992Z,5.13
2019-05-16T18:11:41.370Z,5.50
2019-05-16T18:14:11.755Z,4.67
2019-05-16T18:16:52.392Z,7.40
2019-05-16T18:19:14.246Z,5.90
2019-05-16T18:21:46.395Z,11.97
2019-05-16T18:24:16.969Z,6.00
2019-05-16T18:26:47.631Z,7.47
2019-05-16T18:29:18.075Z,4.33
2019-05-16T18:31:48.521Z,6.00
2019-05-16T18:34:18.966Z,5.97
2019-05-16T18:36:49.303Z,6.73
2019-05-16T18:39:19.684Z,6.67
2019-05-16T18:41:50.015Z,3.47
2019-05-16T18:44:20.527Z,3.90
2019-05-16T18:47:02.771Z,5.00
2019-05-16T18:49:24.116Z,4.43
2019-05-16T18:51:54.456Z,4.73
2019-05-16T18:54:26.639Z,5.77
2019-05-16T18:56:57.797Z,8.07
2019-05-16T18:59:29.549Z,7.17
2019-05-16T19:01:59.934Z,8.73
2019-05-16T19:04:30.359Z,6.00
2019-05-16T19:07:00.716Z,6.87
2019-05-16T19:09:31.103Z,3.80
2019-05-16T19:12:01.561Z,3.23
2019-05-16T19:14:31.941Z,4.30
2019-05-16T19:17:02.379Z,4.27
2019-05-16T19:19:32.885Z,6.90
2019-05-16T19:22:03.223Z,5.73
2019-05-16T19:24:33.667Z,4.10
2019-05-16T19:27:06.531Z,5.20
2019-05-16T19:29:36.948Z,4.40
2019-05-16T19:32:10.081Z,4.70
2019-05-16T19:34:40.452Z,5.13
2019-05-16T19:37:10.784Z,5.93
2019-05-16T19:39:41.602Z,5.40
2019-05-16T19:42:12.426Z,4.40
2019-05-16T19:44:46.345Z,15.20
2019-05-16T19:47:16.472Z,15.53
2019-05-16T19:49:49.733Z,9.93
2019-05-16T19:52:20.697Z,6.60
2019-05-16T19:54:51.602Z,6.33
2019-05-16T19:57:22.758Z,4.57
2019-05-16T19:59:53.733Z,5.33
2019-05-16T20:02:24.667Z,4.07
2019-05-16T20:04:56.380Z,5.43
2019-05-16T20:07:27.430Z,4.30
2019-05-16T20:09:58.499Z,5.37
2019-05-16T20:12:29.565Z,4.23
2019-05-16T20:15:08.050Z,4.70
2019-05-16T20:17:36.460Z,5.00
2019-05-16T20:20:07.423Z,4.77
2019-05-16T20:22:37.815Z,5.07
2019-05-16T20:25:08.570Z,5.07
2019-05-16T20:27:38.985Z,6.80
2019-05-16T20:30:09.775Z,7.90
2019-05-16T20:32:40.177Z,6.43
2019-05-16T20:35:10.980Z,8.30
2019-05-16T20:37:41.304Z,7.80
2019-05-16T20:40:12.613Z,6.47
2019-05-16T20:42:44.199Z,6.30
2019-05-16T20:45:16.775Z,4.50
2019-05-16T20:47:46.698Z,4.40
2019-05-16T20:50:17.176Z,5.50
2019-05-16T20:52:48.777Z,5.30
2019-05-16T20:55:19.195Z,5.57
2019-05-16T20:57:49.597Z,4.53
2019-05-16T21:00:20.079Z,6.17
2019-05-16T21:02:50.539Z,5.67
2019-05-16T21:05:21.012Z,7.10
2019-05-16T21:07:51.325Z,5.70
2019-05-16T21:10:22.756Z,6.57
2019-05-16T21:12:53.072Z,6.30
2019-05-16T21:15:26.349Z,5.87
2019-05-16T21:17:56.931Z,7.37
2019-05-16T21:20:29.847Z,6.83
2019-05-16T21:23:01.407Z,6.60
2019-05-16T21:25:31.790Z,5.70
2019-05-16T21:28:02.527Z,6.47
2019-05-16T21:30:32.885Z,5.90
2019-05-16T21:33:03.349Z,6.23
2019-05-16T21:35:33.704Z,6.10
2019-05-16T21:38:04.030Z,6.70
2019-05-16T21:40:34.385Z,6.27
2019-05-16T21:43:07.252Z,7.57
2019-05-16T21:45:37.257Z,7.33
2019-05-16T21:48:07.803Z,7.53
2019-05-16T21:50:38.173Z,6.30
2019-05-16T21:53:08.504Z,6.30
2019-05-16T21:55:38.869Z,6.63
2019-05-16T21:58:09.256Z,5.43
2019-05-16T22:00:43.980Z,5.70
2019-05-16T22:03:14.595Z,5.30
2019-05-16T22:05:46.554Z,5.07
2019-05-16T22:08:16.994Z,6.07
2019-05-16T22:10:47.685Z,6.50
2019-05-16T22:13:18.308Z,6.90
2019-05-16T22:15:48.704Z,7.00
2019-05-16T22:18:19.108Z,7.30
2019-05-16T22:20:49.574Z,6.80
2019-05-16T22:23:20.014Z,7.23
2019-05-16T22:25:50.347Z,8.10
2019-05-16T22:28:20.695Z,6.50
2019-05-16T22:30:58.120Z,6.07
2019-05-16T22:33:29.949Z,7.53
2019-05-16T22:36:00.493Z,5.67
2019-05-16T22:38:30.935Z,6.60
2019-05-16T22:41:01.310Z,8.27
2019-05-16T22:43:31.698Z,7.80
2019-05-16T22:46:02.137Z,8.00
2019-05-16T22:48:34.363Z,8.03
2019-05-16T22:51:07.293Z,9.00
2019-05-16T22:53:39.707Z,7.67
2019-05-16T22:56:11.779Z,6.73
2019-05-16T22:58:43.769Z,7.70
2019-05-16T23:01:14.222Z,6.93
2019-05-16T23:03:44.606Z,5.97
2019-05-16T23:06:16.286Z,6.83
2019-05-16T23:08:47.121Z,5.60
2019-05-16T23:11:18.592Z,8.57
2019-05-16T23:13:48.946Z,5.90
2019-05-16T23:16:19.272Z,5.30
2019-05-16T23:18:49.643Z,5.50
2019-05-16T23:21:19.967Z,6.37
2019-05-16T23:23:50.323Z,5.97
2019-05-16T23:26:20.642Z,6.13
2019-05-16T23:28:51.042Z,8.67
2019-05-16T23:31:21.372Z,5.70
2019-05-16T23:33:51.730Z,6.10
2019-05-16T23:36:22.536Z,9.77
2019-05-16T23:38:52.956Z,6.50
2019-05-16T23:41:23.433Z,7.93
2019-05-16T23:43:53.808Z,7.57
2019-05-16T23:46:24.143Z,7.77
2019-05-16T23:48:56.436Z,7.93
2019-05-16T23:51:27.622Z,6.67
2019-05-16T23:53:58.044Z,7.73
2019-05-16T23:56:28.426Z,8.80
2019-05-16T23:58:58.763Z,7.27
